Athena, Oregon
Current Conditions -  °F | °C
As of 10:53 PM on Friday 28 Nov 2014 (Local Time) from KPDT Reporting Station
Overcast Overcast  
Wind Chill: 51°   Ceiling: 5500
Heat Index: 51°   Visibility: 10mi
Dew Point: 40°   Wind: 13mph
Humidity: 66%   Direction: 260°W
Pressure: 29.4"   Gusts: NA
Location:  45.81°N, 118.49°W
Report Text: KPDT 290653Z AUTO 26011KT 10SM OVC055 11/04 A2940 RMK AO2 PK WND 23026/0558 RAE10 SLP948 P0000 T01060044
Loading
Personal Weather Stations






























Interactive Weather Map New forecast layout! Learn more

10-Day Weather Forecast

Advertisements
Track Severe Weather on mobile